createdAt,value
2023-05-11T00:00:38.292Z,100.00
2023-05-11T00:03:04.779Z,100.00
2023-05-11T00:05:31.449Z,100.00
2023-05-11T00:07:57.792Z,100.00
2023-05-11T00:10:24.240Z,100.00
2023-05-11T00:12:50.617Z,100.00
2023-05-11T00:15:17.086Z,100.00
2023-05-11T00:17:43.495Z,100.00
2023-05-11T00:20:10.451Z,100.00
2023-05-11T00:22:36.954Z,100.00
2023-05-11T00:25:03.529Z,100.00
2023-05-11T00:27:29.940Z,100.00
2023-05-11T00:29:56.325Z,100.00
2023-05-11T00:32:22.811Z,100.00
2023-05-11T00:34:49.301Z,100.00
2023-05-11T00:37:16.039Z,100.00
2023-05-11T00:39:42.495Z,100.00
2023-05-11T00:42:10.366Z,100.00
2023-05-11T00:44:36.834Z,100.00
2023-05-11T00:47:03.929Z,100.00
2023-05-11T00:49:31.165Z,100.00
2023-05-11T00:51:57.843Z,100.00
2023-05-11T00:54:24.724Z,100.00
2023-05-11T00:56:51.746Z,100.00
2023-05-11T00:59:18.694Z,100.00
2023-05-11T01:01:45.557Z,100.00
2023-05-11T01:04:12.718Z,100.00
2023-05-11T01:06:55.926Z,100.00
2023-05-11T01:09:31.473Z,100.00
2023-05-11T01:12:12.082Z,100.00
2023-05-11T01:15:09.926Z,100.00
2023-05-11T01:17:55.918Z,100.00
2023-05-11T01:20:27.655Z,100.00
2023-05-11T01:23:21.348Z,100.00
2023-05-11T01:26:04.533Z,100.00
2023-05-11T01:28:52.642Z,100.00
2023-05-11T01:31:20.385Z,100.00
2023-05-11T01:33:57.617Z,100.00
2023-05-11T01:36:29.354Z,100.00
2023-05-11T01:39:00.662Z,100.00
2023-05-11T01:41:29.495Z,100.00
2023-05-11T01:43:58.867Z,100.00
2023-05-11T01:46:27.365Z,100.00
2023-05-11T01:48:58.081Z,100.00
2023-05-11T01:51:28.727Z,100.00
2023-05-11T01:53:57.376Z,100.00
2023-05-11T01:56:24.916Z,100.00
2023-05-11T01:58:51.903Z,100.00
2023-05-11T02:01:19.753Z,100.00
2023-05-11T02:03:48.099Z,100.00
2023-05-11T02:06:17.972Z,100.00
2023-05-11T02:08:46.618Z,100.00
2023-05-11T02:11:14.028Z,100.00
2023-05-11T02:13:43.396Z,100.00
2023-05-11T02:16:10.962Z,100.00
2023-05-11T02:18:40.746Z,100.00
2023-05-11T02:21:09.137Z,100.00
2023-05-11T02:23:37.232Z,100.00
2023-05-11T02:26:05.615Z,100.00
2023-05-11T02:28:32.058Z,100.00
2023-05-11T02:31:05.399Z,100.00
2023-05-11T02:33:35.667Z,100.00
2023-05-11T02:36:03.408Z,100.00
2023-05-11T02:38:33.577Z,100.00
2023-05-11T02:41:07.342Z,100.00
2023-05-11T02:43:36.856Z,100.00
2023-05-11T02:46:06.774Z,100.00
2023-05-11T02:48:42.814Z,100.00
2023-05-11T02:51:12.595Z,100.00
2023-05-11T02:53:41.320Z,100.00
2023-05-11T02:56:08.791Z,100.00
2023-05-11T02:58:35.498Z,100.00
2023-05-11T03:01:06.402Z,100.00
2023-05-11T03:03:33.079Z,100.00
2023-05-11T03:05:59.547Z,100.00
2023-05-11T03:08:26.147Z,100.00
2023-05-11T03:10:54.231Z,100.00
2023-05-11T03:13:24.066Z,100.00
2023-05-11T03:15:52.721Z,100.00
2023-05-11T03:18:19.876Z,100.00
2023-05-11T03:20:47.433Z,100.00
2023-05-11T03:23:16.724Z,100.00
2023-05-11T03:25:44.308Z,100.00
2023-05-11T03:28:12.634Z,100.00
2023-05-11T03:30:40.714Z,100.00
2023-05-11T03:33:07.240Z,100.00
2023-05-11T03:35:35.367Z,100.00
2023-05-11T03:38:03.545Z,100.00
2023-05-11T03:40:33.250Z,100.00
2023-05-11T03:43:02.814Z,100.00
2023-05-11T03:45:31.463Z,100.00
2023-05-11T03:47:59.110Z,100.00
2023-05-11T03:50:27.104Z,100.00
2023-05-11T03:52:55.142Z,100.00
2023-05-11T03:55:22.861Z,100.00
2023-05-11T03:57:49.512Z,100.00
2023-05-11T04:00:16.734Z,100.00
2023-05-11T04:02:43.836Z,100.00
2023-05-11T04:05:11.528Z,100.00
2023-05-11T04:07:38.828Z,100.00
2023-05-11T04:10:06.521Z,100.00
2023-05-11T04:12:32.991Z,100.00
2023-05-11T04:14:59.388Z,100.00
2023-05-11T04:17:25.773Z,100.00
2023-05-11T04:19:52.364Z,100.00
2023-05-11T04:22:18.756Z,100.00
2023-05-11T04:24:45.192Z,100.00
2023-05-11T04:27:11.657Z,100.00
2023-05-11T04:29:38.090Z,100.00
2023-05-11T04:32:04.743Z,100.00
2023-05-11T04:34:31.133Z,100.00
2023-05-11T04:36:57.497Z,100.00
2023-05-11T04:39:23.885Z,100.00
2023-05-11T04:41:50.268Z,100.00
2023-05-11T04:44:16.657Z,100.00
2023-05-11T04:46:43.053Z,100.00
2023-05-11T04:49:09.467Z,100.00
2023-05-11T04:51:35.896Z,100.00
2023-05-11T04:54:02.304Z,100.00
2023-05-11T04:56:28.707Z,100.00
2023-05-11T04:58:55.114Z,100.00
2023-05-11T05:01:21.587Z,100.00
2023-05-11T05:03:49.560Z,100.00
2023-05-11T05:06:16.035Z,100.00
2023-05-11T05:08:42.410Z,100.00
2023-05-11T05:11:09.981Z,100.00
2023-05-11T05:13:36.336Z,100.00
2023-05-11T05:16:02.833Z,100.00
2023-05-11T05:18:29.222Z,100.00
2023-05-11T05:20:55.683Z,100.00
2023-05-11T05:23:22.171Z,100.00
2023-05-11T05:25:48.542Z,100.00
2023-05-11T05:28:14.958Z,100.00
2023-05-11T05:30:41.443Z,100.00
2023-05-11T05:33:08.020Z,100.00
2023-05-11T05:35:34.431Z,100.00
2023-05-11T05:38:00.786Z,100.00
2023-05-11T05:40:27.169Z,100.00
2023-05-11T05:42:53.584Z,100.00
2023-05-11T05:45:20.229Z,100.00
2023-05-11T05:47:47.240Z,100.00
2023-05-11T05:50:13.643Z,100.00
2023-05-11T05:52:40.199Z,100.00
2023-05-11T05:55:06.853Z,100.00
2023-05-11T05:57:33.694Z,100.00
2023-05-11T06:00:00.222Z,100.00
2023-05-11T06:02:26.829Z,100.00
2023-05-11T06:04:53.386Z,100.00
2023-05-11T06:07:19.877Z,100.00
2023-05-11T06:09:46.473Z,100.00
2023-05-11T06:12:12.919Z,100.00
2023-05-11T06:14:39.368Z,100.00
2023-05-11T06:17:05.785Z,100.00
2023-05-11T06:19:32.182Z,100.00
2023-05-11T06:21:58.563Z,100.00
2023-05-11T06:24:25.123Z,100.00
2023-05-11T06:26:51.560Z,100.00
2023-05-11T06:29:19.797Z,100.00
2023-05-11T06:31:46.293Z,100.00
2023-05-11T06:34:12.768Z,100.00
2023-05-11T06:36:39.265Z,100.00
2023-05-11T06:39:07.284Z,100.00
2023-05-11T06:41:33.752Z,100.00
2023-05-11T06:44:00.726Z,100.00
2023-05-11T06:46:27.282Z,100.00
2023-05-11T06:48:54.189Z,100.00
2023-05-11T06:51:24.089Z,100.00
2023-05-11T06:53:50.827Z,100.00
2023-05-11T06:56:17.292Z,100.00
2023-05-11T06:58:43.712Z,100.00
2023-05-11T07:01:11.497Z,100.00
2023-05-11T07:03:37.994Z,100.00
2023-05-11T07:06:04.804Z,100.00
2023-05-11T07:08:33.755Z,100.00
2023-05-11T07:11:00.494Z,100.00
2023-05-11T07:13:27.024Z,100.00
2023-05-11T07:15:55.861Z,100.00
2023-05-11T07:18:23.759Z,100.00
2023-05-11T07:20:50.283Z,100.00
2023-05-11T07:23:17.167Z,100.00
2023-05-11T07:25:43.698Z,100.00
2023-05-11T07:28:10.202Z,100.00
2023-05-11T07:30:36.596Z,100.00
2023-05-11T07:33:03.329Z,100.00
2023-05-11T07:35:29.800Z,100.00
2023-05-11T07:37:56.212Z,100.00
2023-05-11T07:40:22.673Z,100.00
2023-05-11T07:42:49.152Z,100.00
2023-05-11T07:45:15.650Z,100.00
2023-05-11T07:47:42.096Z,100.00
2023-05-11T07:50:08.904Z,100.00
2023-05-11T07:52:35.343Z,100.00
2023-05-11T07:55:01.744Z,100.00
2023-05-11T07:57:28.198Z,100.00
2023-05-11T07:59:54.610Z,98.89
2023-05-11T08:02:21.332Z,98.13
2023-05-11T08:04:47.870Z,97.58
2023-05-11T08:07:14.432Z,97.46
2023-05-11T08:09:40.832Z,97.15
2023-05-11T08:12:07.296Z,95.32
2023-05-11T08:14:33.759Z,94.13
2023-05-11T08:17:00.388Z,92.76
2023-05-11T08:19:26.860Z,88.59
2023-05-11T08:21:53.496Z,88.60
2023-05-11T08:24:19.928Z,86.04
2023-05-11T08:26:47.182Z,85.55
2023-05-11T08:29:13.686Z,85.18
2023-05-11T08:31:40.417Z,81.33
2023-05-11T08:34:18.703Z,83.72
2023-05-11T08:36:46.802Z,82.94
2023-05-11T08:39:13.272Z,81.45
2023-05-11T08:41:39.677Z,80.93
2023-05-11T08:44:06.358Z,81.51
2023-05-11T08:46:36.126Z,80.47
2023-05-11T08:49:03.010Z,78.66
2023-05-11T08:51:29.561Z,77.42
2023-05-11T08:53:57.742Z,76.20
2023-05-11T08:56:26.258Z,75.61
2023-05-11T08:58:57.589Z,75.97
2023-05-11T09:01:25.266Z,74.10
2023-05-11T09:03:52.519Z,72.41
2023-05-11T09:06:20.816Z,71.35
2023-05-11T09:08:47.889Z,70.13
2023-05-11T09:11:14.899Z,68.45
2023-05-11T09:13:41.448Z,68.03
2023-05-11T09:16:16.872Z,71.62
2023-05-11T09:18:58.753Z,68.92
2023-05-11T09:21:25.326Z,65.31
2023-05-11T09:23:52.195Z,64.23
2023-05-11T09:26:26.543Z,63.91
2023-05-11T09:29:02.748Z,66.25
2023-05-11T09:31:37.805Z,65.76
2023-05-11T09:34:21.407Z,66.76
2023-05-11T09:36:48.860Z,69.36
2023-05-11T09:39:16.670Z,72.16
2023-05-11T09:41:43.705Z,69.22
2023-05-11T09:44:15.105Z,67.53
2023-05-11T09:46:43.788Z,67.81
2023-05-11T09:49:11.727Z,70.11
2023-05-11T09:51:40.585Z,71.83
2023-05-11T09:54:20.979Z,72.36
2023-05-11T09:56:50.106Z,72.45
2023-05-11T09:59:35.505Z,74.05
2023-05-11T10:02:23.521Z,75.91
2023-05-11T10:04:51.663Z,79.40
2023-05-11T10:07:35.066Z,80.19
2023-05-11T10:10:11.699Z,79.54
2023-05-11T10:12:40.249Z,80.23
2023-05-11T10:15:08.937Z,81.61
2023-05-11T10:17:36.844Z,82.47
2023-05-11T10:20:05.821Z,84.62
2023-05-11T10:22:32.770Z,85.53
2023-05-11T10:25:00.078Z,87.80
2023-05-11T10:27:27.493Z,87.43
2023-05-11T10:29:54.206Z,87.70
2023-05-11T10:32:20.867Z,88.17
2023-05-11T10:34:48.388Z,89.26
2023-05-11T10:37:16.388Z,90.53
2023-05-11T10:39:44.436Z,91.05
2023-05-11T10:42:30.848Z,93.83
2023-05-11T10:45:21.586Z,94.22
2023-05-11T10:48:10.035Z,97.16
2023-05-11T10:50:52.105Z,98.44
2023-05-11T10:53:33.885Z,100.00
2023-05-11T10:56:20.576Z,100.00
2023-05-11T10:59:08.547Z,100.00
2023-05-11T11:01:40.179Z,100.00
2023-05-11T11:04:08.789Z,100.00
2023-05-11T11:06:37.365Z,100.00
2023-05-11T11:09:12.687Z,100.00
2023-05-11T11:11:42.703Z,100.00
2023-05-11T11:14:10.320Z,100.00
2023-05-11T11:16:37.738Z,100.00
2023-05-11T11:19:32.740Z,100.00
2023-05-11T11:22:02.603Z,100.00
2023-05-11T11:24:38.312Z,100.00
2023-05-11T11:27:09.132Z,100.00
2023-05-11T11:29:36.709Z,100.00
2023-05-11T11:32:21.390Z,100.00
2023-05-11T11:34:48.669Z,100.00
2023-05-11T11:37:16.690Z,100.00
2023-05-11T11:39:43.044Z,100.00
2023-05-11T11:42:15.461Z,100.00
2023-05-11T11:44:43.175Z,100.00
2023-05-11T11:47:21.344Z,100.00
2023-05-11T11:49:47.706Z,100.00
2023-05-11T11:52:43.447Z,100.00
2023-05-11T11:55:45.920Z,100.00
2023-05-11T11:58:12.335Z,100.00
2023-05-11T12:00:40.008Z,100.00
2023-05-11T12:03:07.807Z,100.00
2023-05-11T12:05:39.037Z,100.00
2023-05-11T12:08:07.347Z,100.00
2023-05-11T12:10:33.832Z,100.00
2023-05-11T12:13:01.096Z,100.00
2023-05-11T12:15:29.566Z,98.79
2023-05-11T12:17:56.749Z,98.01
2023-05-11T12:20:23.686Z,96.89
2023-05-11T12:22:50.721Z,97.85
2023-05-11T12:25:19.017Z,97.59
2023-05-11T12:27:50.462Z,96.80
2023-05-11T12:30:21.033Z,95.78
2023-05-11T12:32:47.755Z,94.34
2023-05-11T12:35:16.429Z,94.10
2023-05-11T12:37:44.071Z,94.62
2023-05-11T12:40:11.614Z,92.43
2023-05-11T12:42:37.990Z,92.57
2023-05-11T12:45:08.278Z,92.90
2023-05-11T12:47:35.711Z,94.94
2023-05-11T12:50:02.591Z,93.23
2023-05-11T12:52:28.994Z,91.28
2023-05-11T12:55:00.360Z,92.55
2023-05-11T12:57:29.219Z,92.41
2023-05-11T13:00:16.845Z,93.42
2023-05-11T13:02:52.126Z,87.86
2023-05-11T13:05:23.887Z,87.17
2023-05-11T13:08:00.908Z,87.15
2023-05-11T13:10:27.883Z,85.51
2023-05-11T13:12:54.652Z,87.48
2023-05-11T13:15:22.775Z,88.23
2023-05-11T13:18:00.103Z,91.09
2023-05-11T13:20:32.587Z,89.61
2023-05-11T13:23:21.657Z,90.51
2023-05-11T13:25:54.215Z,92.57
2023-05-11T13:28:24.330Z,92.98
2023-05-11T13:30:58.106Z,93.55
2023-05-11T13:33:24.538Z,94.26
2023-05-11T13:35:50.964Z,95.50
2023-05-11T13:38:17.400Z,96.34
2023-05-11T13:40:43.772Z,94.76
2023-05-11T13:43:10.222Z,95.19
2023-05-11T13:45:36.615Z,95.39
2023-05-11T13:48:03.600Z,95.46
2023-05-11T13:50:30.431Z,95.01
2023-05-11T13:52:57.488Z,94.73
2023-05-11T13:55:24.017Z,93.95
2023-05-11T13:57:51.177Z,94.10
2023-05-11T14:00:17.986Z,93.17
2023-05-11T14:02:44.853Z,91.54
2023-05-11T14:05:11.941Z,90.55
2023-05-11T14:07:47.128Z,92.13
2023-05-11T14:10:16.126Z,92.73
2023-05-11T14:12:42.648Z,92.69
2023-05-11T14:15:09.625Z,91.77
2023-05-11T14:17:36.117Z,90.72
2023-05-11T14:20:03.927Z,90.80
2023-05-11T14:22:30.571Z,89.41
2023-05-11T14:24:56.945Z,90.49
2023-05-11T14:27:23.874Z,90.03
2023-05-11T14:29:52.103Z,89.21
2023-05-11T14:32:19.355Z,89.70
2023-05-11T14:34:46.076Z,89.32
2023-05-11T14:37:13.255Z,88.95
2023-05-11T14:39:42.707Z,90.16
2023-05-11T14:42:09.207Z,89.63
2023-05-11T14:44:35.701Z,88.11
2023-05-11T14:47:02.259Z,88.08
2023-05-11T14:49:28.804Z,86.91
2023-05-11T14:51:55.243Z,86.90
2023-05-11T14:54:21.800Z,86.54
2023-05-11T14:56:53.673Z,86.04
2023-05-11T14:59:21.535Z,85.15
2023-05-11T15:01:49.381Z,85.18
2023-05-11T15:04:16.794Z,83.04
2023-05-11T15:06:43.694Z,83.27
2023-05-11T15:09:10.224Z,86.20
2023-05-11T15:11:39.722Z,87.11
2023-05-11T15:14:07.069Z,85.80
2023-05-11T15:16:33.777Z,84.51
2023-05-11T15:19:00.923Z,85.11
2023-05-11T15:21:27.583Z,85.48
2023-05-11T15:23:54.299Z,86.15
2023-05-11T15:26:21.921Z,84.35
2023-05-11T15:28:48.338Z,84.53
2023-05-11T15:31:14.953Z,83.43
2023-05-11T15:33:41.580Z,82.06
2023-05-11T15:36:13.419Z,81.22
2023-05-11T15:38:40.840Z,81.38
2023-05-11T15:41:07.955Z,82.56
2023-05-11T15:43:34.908Z,80.09
2023-05-11T15:46:03.892Z,78.79
2023-05-11T15:48:30.903Z,79.33
2023-05-11T15:51:00.070Z,79.88
2023-05-11T15:53:27.805Z,81.74
2023-05-11T15:55:55.361Z,82.80
2023-05-11T15:58:22.680Z,81.21
2023-05-11T16:00:49.333Z,81.37
2023-05-11T16:03:16.385Z,81.00
2023-05-11T16:05:42.997Z,79.63
2023-05-11T16:08:09.402Z,79.76
2023-05-11T16:10:36.276Z,81.00
2023-05-11T16:13:02.693Z,79.31
2023-05-11T16:15:31.139Z,79.93
2023-05-11T16:17:58.452Z,78.94
2023-05-11T16:20:24.995Z,79.62
2023-05-11T16:22:51.357Z,80.52
2023-05-11T16:25:17.982Z,80.16
2023-05-11T16:27:44.372Z,80.27
2023-05-11T16:30:23.058Z,79.31
2023-05-11T16:32:51.236Z,81.58
2023-05-11T16:35:17.805Z,82.04
2023-05-11T16:37:44.170Z,81.84
2023-05-11T16:40:10.749Z,82.87
2023-05-11T16:42:37.214Z,82.78
2023-05-11T16:45:03.946Z,84.90
2023-05-11T16:47:31.353Z,84.38
2023-05-11T16:49:57.855Z,86.02
2023-05-11T16:52:24.703Z,86.06
2023-05-11T16:54:51.125Z,88.06
2023-05-11T16:57:17.543Z,89.40
2023-05-11T16:59:44.008Z,89.32
2023-05-11T17:02:10.514Z,90.33
2023-05-11T17:04:37.178Z,90.98
2023-05-11T17:07:03.724Z,91.12
2023-05-11T17:09:30.921Z,92.29
2023-05-11T17:11:57.346Z,93.69
2023-05-11T17:14:23.749Z,94.85
2023-05-11T17:16:50.164Z,95.89
2023-05-11T17:19:16.724Z,96.20
2023-05-11T17:21:43.285Z,95.83
2023-05-11T17:24:09.744Z,94.87
2023-05-11T17:26:47.304Z,94.91
2023-05-11T17:29:15.610Z,95.07
2023-05-11T17:31:42.638Z,96.14
2023-05-11T17:34:09.402Z,96.50
2023-05-11T17:36:36.140Z,97.22
2023-05-11T17:39:02.572Z,98.54
2023-05-11T17:41:28.977Z,98.82
2023-05-11T17:43:55.471Z,99.80
2023-05-11T17:46:22.019Z,100.00
2023-05-11T17:48:49.038Z,100.00
2023-05-11T17:51:15.718Z,100.00
2023-05-11T17:53:42.490Z,100.00
2023-05-11T17:56:11.654Z,99.72
2023-05-11T17:58:38.206Z,100.00
2023-05-11T18:01:08.973Z,100.00
2023-05-11T18:03:35.900Z,99.97
2023-05-11T18:06:02.595Z,100.00
2023-05-11T18:08:29.122Z,100.00
2023-05-11T18:10:55.614Z,99.85
2023-05-11T18:13:22.686Z,99.85
2023-05-11T18:15:49.186Z,100.00
2023-05-11T18:18:15.963Z,100.00
2023-05-11T18:20:45.433Z,100.00
2023-05-11T18:23:13.017Z,100.00
2023-05-11T18:25:39.809Z,100.00
2023-05-11T18:28:06.214Z,100.00
2023-05-11T18:30:34.341Z,100.00
2023-05-11T18:33:01.741Z,100.00
2023-05-11T18:35:28.307Z,100.00
2023-05-11T18:37:55.017Z,100.00
2023-05-11T18:40:21.768Z,100.00
2023-05-11T18:42:48.333Z,100.00
2023-05-11T18:45:14.770Z,100.00
2023-05-11T18:47:44.442Z,100.00
2023-05-11T18:50:11.384Z,100.00
2023-05-11T18:52:37.940Z,100.00
2023-05-11T18:55:04.538Z,100.00
2023-05-11T18:57:32.560Z,100.00
2023-05-11T18:59:58.918Z,100.00
2023-05-11T19:02:25.380Z,100.00
2023-05-11T19:04:51.885Z,100.00
2023-05-11T19:07:20.289Z,100.00
2023-05-11T19:09:46.986Z,100.00
2023-05-11T19:12:13.486Z,100.00
2023-05-11T19:14:39.887Z,100.00
2023-05-11T19:17:06.371Z,100.00
2023-05-11T19:19:32.762Z,100.00
2023-05-11T19:21:59.321Z,100.00
2023-05-11T19:24:25.943Z,100.00
2023-05-11T19:27:06.055Z,100.00
2023-05-11T19:29:33.593Z,100.00
2023-05-11T19:32:00.277Z,100.00
2023-05-11T19:34:26.781Z,100.00
2023-05-11T19:36:53.151Z,100.00
2023-05-11T19:39:19.529Z,100.00
2023-05-11T19:41:46.152Z,100.00
2023-05-11T19:44:12.614Z,100.00
2023-05-11T19:46:45.641Z,100.00
2023-05-11T19:49:16.251Z,100.00
2023-05-11T19:51:43.464Z,100.00
2023-05-11T19:54:11.329Z,100.00
2023-05-11T19:56:38.193Z,100.00
2023-05-11T19:59:04.865Z,100.00
2023-05-11T20:01:31.621Z,100.00
2023-05-11T20:03:58.422Z,100.00
2023-05-11T20:06:25.769Z,100.00
2023-05-11T20:08:52.774Z,100.00
2023-05-11T20:11:19.521Z,100.00
2023-05-11T20:13:46.798Z,100.00
2023-05-11T20:16:13.688Z,100.00
2023-05-11T20:18:40.160Z,100.00
2023-05-11T20:21:06.940Z,100.00
2023-05-11T20:23:35.211Z,100.00
2023-05-11T20:26:03.125Z,100.00
2023-05-11T20:28:29.630Z,100.00
2023-05-11T20:30:59.110Z,100.00
2023-05-11T20:35:54.901Z,100.00
2023-05-11T20:38:22.009Z,100.00
2023-05-11T20:40:48.401Z,100.00
2023-05-11T20:43:15.060Z,100.00
2023-05-11T20:45:42.103Z,100.00
2023-05-11T20:48:08.766Z,100.00
2023-05-11T20:50:35.330Z,100.00
2023-05-11T20:53:01.857Z,100.00
2023-05-11T20:55:28.432Z,100.00
2023-05-11T20:57:54.811Z,100.00
2023-05-11T21:00:21.442Z,100.00
2023-05-11T21:02:48.190Z,100.00
2023-05-11T21:05:14.816Z,100.00
2023-05-11T21:07:41.313Z,100.00
2023-05-11T21:10:08.142Z,100.00
2023-05-11T21:12:34.606Z,100.00
2023-05-11T21:15:01.112Z,100.00
2023-05-11T21:17:27.677Z,100.00
2023-05-11T21:19:54.183Z,100.00
2023-05-11T21:22:20.611Z,100.00
2023-05-11T21:24:47.006Z,100.00
2023-05-11T21:27:13.380Z,100.00
2023-05-11T21:29:39.770Z,100.00
2023-05-11T21:32:06.798Z,100.00
2023-05-11T21:34:33.233Z,100.00
2023-05-11T21:36:59.788Z,100.00
2023-05-11T21:39:26.273Z,100.00
2023-05-11T21:41:52.747Z,100.00
2023-05-11T21:44:19.995Z,100.00
2023-05-11T21:46:46.683Z,100.00
2023-05-11T21:49:13.591Z,100.00
2023-05-11T21:51:39.997Z,100.00
2023-05-11T21:54:07.386Z,100.00
2023-05-11T21:56:34.713Z,100.00
2023-05-11T21:59:01.091Z,100.00
2023-05-11T22:01:27.535Z,100.00
2023-05-11T22:03:54.022Z,100.00
2023-05-11T22:06:20.513Z,100.00
2023-05-11T22:08:46.938Z,100.00
2023-05-11T22:11:13.417Z,100.00
2023-05-11T22:13:39.881Z,100.00
2023-05-11T22:16:07.254Z,100.00
2023-05-11T22:18:33.746Z,100.00
2023-05-11T22:21:00.318Z,100.00
2023-05-11T22:23:26.860Z,100.00
2023-05-11T22:25:53.260Z,100.00
2023-05-11T22:28:19.654Z,100.00
2023-05-11T22:30:46.061Z,100.00
2023-05-11T22:33:12.428Z,100.00
2023-05-11T22:35:40.067Z,100.00
2023-05-11T22:38:06.679Z,100.00
2023-05-11T22:40:33.101Z,100.00
2023-05-11T22:42:59.478Z,100.00
2023-05-11T22:45:26.029Z,100.00
2023-05-11T22:47:52.521Z,100.00
2023-05-11T22:50:19.376Z,100.00
2023-05-11T22:52:47.197Z,100.00
2023-05-11T22:55:13.589Z,100.00
2023-05-11T22:57:40.026Z,100.00
2023-05-11T23:00:09.576Z,100.00
2023-05-11T23:02:36.144Z,100.00
2023-05-11T23:05:02.794Z,100.00
2023-05-11T23:07:29.235Z,100.00
2023-05-11T23:09:55.685Z,100.00
2023-05-11T23:12:22.083Z,100.00
2023-05-11T23:14:48.557Z,100.00
2023-05-11T23:17:15.164Z,100.00
2023-05-11T23:19:42.351Z,100.00
2023-05-11T23:22:08.779Z,100.00
2023-05-11T23:24:35.194Z,100.00
2023-05-11T23:27:03.347Z,100.00
2023-05-11T23:29:29.849Z,100.00
2023-05-11T23:31:56.406Z,100.00
2023-05-11T23:34:22.831Z,100.00
2023-05-11T23:36:49.385Z,100.00
2023-05-11T23:39:15.851Z,100.00
2023-05-11T23:41:42.484Z,100.00
2023-05-11T23:44:08.901Z,100.00
2023-05-11T23:46:36.014Z,100.00
2023-05-11T23:49:02.665Z,100.00
2023-05-11T23:51:29.041Z,100.00
2023-05-11T23:53:55.444Z,100.00
2023-05-11T23:56:21.991Z,100.00
2023-05-11T23:58:50.321Z,100.00
